Pratapolis, Brazil
Current Conditions -  °F | °C
As of 10:00 AM on Friday 24 Oct 2014 (Local Time) from SBRP Reporting Station
Clear Clear  
Wind Chill: 81°   Ceiling: Unl
Heat Index: 82°   Visibility: 6mi
Dew Point: 63°   Wind: 8mph
Humidity: 54%   Direction: 50°NE
Pressure: 30.03"   Gusts: 20mph
Location:  20.74°S, 46.86°W
Report Text: SBRP 241200Z 05007G17KT CAVOK 27/17 Q1017
Loading
Personal Weather Stations






























Interactive Weather Map
Tropical Storm Tracking
New forecast layout! Learn more

10-Day Weather Forecast

Advertisements
Track Severe Weather on mobile